createdAt,value
2019-03-20T00:00:20.427Z,66.06
2019-03-20T00:02:48.977Z,66.21
2019-03-20T00:05:17.103Z,66.06
2019-03-20T00:07:45.143Z,66.11
2019-03-20T00:10:13.351Z,66.24
2019-03-20T00:12:41.386Z,66.40
2019-03-20T00:15:10.441Z,65.97
2019-03-20T00:17:38.358Z,66.61
2019-03-20T00:20:07.489Z,66.36
2019-03-20T00:22:35.522Z,66.23
2019-03-20T00:25:03.789Z,66.43
2019-03-20T00:27:31.821Z,66.57
2019-03-20T00:30:00.514Z,66.81
2019-03-20T00:32:28.568Z,67.33
2019-03-20T00:35:00.912Z,66.60
2019-03-20T00:37:26.397Z,67.23
2019-03-20T00:39:54.511Z,67.75
2019-03-20T00:42:22.544Z,67.41
2019-03-20T00:44:50.727Z,67.42
2019-03-20T00:47:19.260Z,67.29
2019-03-20T00:49:47.278Z,67.24
2019-03-20T00:52:15.233Z,67.66
2019-03-20T00:54:43.399Z,67.23
2019-03-20T00:57:11.427Z,67.49
2019-03-20T00:59:39.433Z,67.20
2019-03-20T01:02:07.482Z,67.78
2019-03-20T01:04:35.707Z,67.85
2019-03-20T01:07:03.734Z,67.93
2019-03-20T01:09:31.824Z,67.56
2019-03-20T01:11:59.920Z,67.81
2019-03-20T01:14:27.937Z,67.50
2019-03-20T01:16:55.782Z,68.02
2019-03-20T01:19:23.775Z,67.56
2019-03-20T01:21:52.012Z,67.30
2019-03-20T01:24:19.857Z,67.18
2019-03-20T01:26:47.737Z,67.71
2019-03-20T01:29:15.961Z,68.00
2019-03-20T01:31:44.041Z,68.13
2019-03-20T01:34:12.041Z,67.64
2019-03-20T01:36:40.042Z,67.48
2019-03-20T01:39:08.886Z,67.42
2019-03-20T01:41:38.290Z,67.77
2019-03-20T01:44:06.551Z,67.89
2019-03-20T01:46:34.719Z,67.90
2019-03-20T01:49:02.663Z,68.18
2019-03-20T01:51:30.990Z,68.55
2019-03-20T01:53:59.005Z,68.32
2019-03-20T01:56:26.889Z,68.05
2019-03-20T01:58:55.086Z,68.35
2019-03-20T02:01:23.428Z,68.44
2019-03-20T02:03:51.576Z,68.27
2019-03-20T02:06:20.422Z,68.19
2019-03-20T02:08:49.164Z,68.22
2019-03-20T02:11:17.270Z,68.39
2019-03-20T02:13:45.290Z,68.42
2019-03-20T02:16:13.161Z,68.41
2019-03-20T02:18:41.082Z,68.76
2019-03-20T02:21:09.261Z,69.18
2019-03-20T02:23:37.212Z,69.16
2019-03-20T02:26:05.339Z,69.31
2019-03-20T02:28:33.346Z,68.92
2019-03-20T02:31:01.995Z,69.16
2019-03-20T02:33:31.204Z,69.13
2019-03-20T02:35:59.287Z,68.93
2019-03-20T02:38:27.098Z,68.69
2019-03-20T02:40:55.080Z,68.51
2019-03-20T02:43:23.493Z,68.48
2019-03-20T02:45:51.546Z,68.66
2019-03-20T02:48:19.518Z,68.76
2019-03-20T02:50:47.598Z,69.13
2019-03-20T02:53:15.660Z,69.12
2019-03-20T02:55:44.642Z,69.29
2019-03-20T02:58:12.600Z,69.43
2019-03-20T03:00:40.705Z,69.72
2019-03-20T03:03:08.756Z,69.90
2019-03-20T03:05:36.836Z,70.36
2019-03-20T03:08:05.038Z,70.11
2019-03-20T03:10:32.963Z,70.30
2019-03-20T03:13:00.886Z,70.24
2019-03-20T03:15:29.001Z,70.36
2019-03-20T03:17:57.128Z,70.45
2019-03-20T03:20:25.200Z,70.50
2019-03-20T03:22:53.237Z,70.61
2019-03-20T03:25:21.282Z,71.35
2019-03-20T03:27:49.484Z,70.41
2019-03-20T03:32:51.795Z,70.57
2019-03-20T03:35:20.435Z,70.73
2019-03-20T03:37:49.621Z,71.12
2019-03-20T03:40:17.720Z,71.23
2019-03-20T03:42:46.671Z,70.77
2019-03-20T03:45:14.804Z,70.83
2019-03-20T03:47:42.807Z,70.83
2019-03-20T03:50:11.294Z,70.74
2019-03-20T03:52:39.520Z,70.84
2019-03-20T03:55:07.674Z,70.84
2019-03-20T03:57:36.094Z,70.92
2019-03-20T04:00:05.108Z,71.30
2019-03-20T04:02:33.218Z,71.43
2019-03-20T04:05:01.268Z,71.64
2019-03-20T04:07:29.358Z,71.49
2019-03-20T04:09:57.409Z,71.64
2019-03-20T04:12:25.934Z,71.69
2019-03-20T04:14:53.997Z,71.69
2019-03-20T04:17:26.657Z,71.78
2019-03-20T04:19:54.581Z,72.23
2019-03-20T04:22:22.683Z,72.36
2019-03-20T04:24:50.766Z,72.66
2019-03-20T04:27:18.878Z,73.14
2019-03-20T04:29:46.856Z,72.75
2019-03-20T04:32:14.972Z,72.68
2019-03-20T04:34:43.079Z,72.55
2019-03-20T04:37:11.166Z,72.64
2019-03-20T04:39:40.249Z,72.73
2019-03-20T04:42:08.266Z,72.78
2019-03-20T04:44:36.501Z,72.70
2019-03-20T04:47:04.675Z,72.89
2019-03-20T04:49:32.728Z,72.97
2019-03-20T04:52:01.303Z,73.16
2019-03-20T04:54:29.275Z,73.28
2019-03-20T04:56:57.873Z,73.62
2019-03-20T04:59:25.941Z,74.18
2019-03-20T05:01:54.068Z,73.78
2019-03-20T05:04:21.924Z,73.99
2019-03-20T05:06:58.314Z,73.66
2019-03-20T05:09:20.014Z,73.68
2019-03-20T05:11:47.935Z,74.25
2019-03-20T05:14:16.046Z,74.43
2019-03-20T05:16:44.082Z,74.45
2019-03-20T05:19:12.144Z,74.60
2019-03-20T05:21:40.180Z,74.26
2019-03-20T05:24:08.297Z,74.43
2019-03-20T05:26:36.232Z,74.26
2019-03-20T05:29:04.357Z,74.27
2019-03-20T05:31:32.360Z,74.68
2019-03-20T05:34:00.577Z,75.55
2019-03-20T05:36:28.648Z,75.97
2019-03-20T05:38:56.866Z,75.16
2019-03-20T05:41:24.864Z,75.37
2019-03-20T05:43:52.854Z,75.66
2019-03-20T05:46:20.878Z,75.60
2019-03-20T05:48:49.102Z,75.64
2019-03-20T05:51:16.974Z,75.17
2019-03-20T05:53:45.014Z,74.50
2019-03-20T05:56:13.049Z,73.85
2019-03-20T05:58:41.068Z,73.82
2019-03-20T06:01:09.094Z,73.89
2019-03-20T06:03:37.131Z,74.16
2019-03-20T06:06:05.098Z,74.88
2019-03-20T06:08:33.502Z,75.57
2019-03-20T06:11:01.667Z,75.12
2019-03-20T06:13:29.773Z,74.55
2019-03-20T06:15:59.869Z,74.33
2019-03-20T06:18:27.765Z,74.33
2019-03-20T06:20:55.812Z,74.71
2019-03-20T06:23:23.902Z,74.31
2019-03-20T06:25:51.944Z,74.46
2019-03-20T06:28:20.065Z,74.41
2019-03-20T06:30:48.124Z,74.63
2019-03-20T06:33:16.195Z,74.52
2019-03-20T06:35:44.068Z,75.07
2019-03-20T06:38:12.211Z,75.01
2019-03-20T06:40:40.289Z,75.95
2019-03-20T06:43:08.282Z,77.14
2019-03-20T06:45:36.299Z,76.56
2019-03-20T06:48:04.467Z,75.60
2019-03-20T06:50:32.507Z,76.65
2019-03-20T06:53:01.385Z,75.77
2019-03-20T06:55:30.301Z,75.63
2019-03-20T06:57:58.231Z,75.77
2019-03-20T07:00:49.253Z,76.00
2019-03-20T07:03:41.579Z,76.40
2019-03-20T07:06:33.040Z,76.47
2019-03-20T07:09:31.875Z,76.41
2019-03-20T07:11:59.823Z,78.28
2019-03-20T07:14:27.803Z,77.45
2019-03-20T07:16:55.748Z,77.93
2019-03-20T07:19:24.450Z,79.25
2019-03-20T07:21:52.529Z,77.67
2019-03-20T07:24:20.813Z,77.54
2019-03-20T07:26:48.747Z,78.70
2019-03-20T07:29:16.849Z,76.65
2019-03-20T07:31:44.899Z,76.69
2019-03-20T07:34:13.087Z,75.28
2019-03-20T07:36:41.225Z,74.74
2019-03-20T07:39:09.758Z,74.99
2019-03-20T07:41:37.794Z,73.96
2019-03-20T07:44:05.901Z,74.79
2019-03-20T07:46:34.310Z,73.57
2019-03-20T07:49:02.434Z,73.84
2019-03-20T07:51:30.409Z,72.87
2019-03-20T07:53:58.562Z,73.83
2019-03-20T07:56:26.657Z,72.76
2019-03-20T07:58:54.859Z,71.65
2019-03-20T08:01:22.952Z,71.32
2019-03-20T08:03:51.000Z,70.90
2019-03-20T08:06:19.023Z,70.94
2019-03-20T08:08:47.224Z,70.60
2019-03-20T08:11:18.483Z,75.04
2019-03-20T08:13:46.500Z,73.69
2019-03-20T08:16:15.195Z,73.45
2019-03-20T08:18:43.260Z,71.70
2019-03-20T08:21:11.281Z,71.23
2019-03-20T08:23:39.333Z,71.95
2019-03-20T08:26:07.584Z,67.71
2019-03-20T08:28:36.641Z,63.71
2019-03-20T08:31:05.236Z,62.88
2019-03-20T08:33:33.424Z,63.97
2019-03-20T08:36:03.566Z,64.70
2019-03-20T08:38:32.163Z,62.67
2019-03-20T08:41:00.295Z,65.17
2019-03-20T08:43:30.762Z,63.03
2019-03-20T08:46:01.086Z,61.91
2019-03-20T08:48:29.046Z,63.07
2019-03-20T08:50:57.081Z,63.11
2019-03-20T08:53:25.350Z,62.35
2019-03-20T08:55:53.566Z,62.54
2019-03-20T08:58:21.621Z,60.35
2019-03-20T09:00:49.837Z,61.18
2019-03-20T09:03:18.238Z,61.82
2019-03-20T09:05:46.595Z,61.26
2019-03-20T09:08:14.626Z,59.83
2019-03-20T09:10:42.784Z,58.16
2019-03-20T09:13:10.825Z,58.25
2019-03-20T09:15:39.061Z,56.84
2019-03-20T09:18:07.375Z,55.91
2019-03-20T09:20:35.577Z,56.41
2019-03-20T09:23:03.862Z,57.53
2019-03-20T09:25:32.895Z,56.15
2019-03-20T09:28:00.933Z,57.50
2019-03-20T09:30:28.945Z,56.49
2019-03-20T09:32:57.647Z,55.16
2019-03-20T09:35:25.861Z,54.39
2019-03-20T09:37:53.796Z,52.51
2019-03-20T09:40:23.627Z,53.69
2019-03-20T09:42:53.893Z,53.10
2019-03-20T09:45:23.025Z,54.01
2019-03-20T09:47:51.766Z,54.33
2019-03-20T09:50:20.134Z,52.74
2019-03-20T09:52:50.077Z,52.33
2019-03-20T09:55:18.668Z,50.67
2019-03-20T09:57:46.743Z,51.01
2019-03-20T10:00:22.154Z,51.94
2019-03-20T10:02:50.264Z,51.14
2019-03-20T10:05:18.419Z,51.63
2019-03-20T10:07:46.551Z,50.67
2019-03-20T10:10:19.173Z,49.69
2019-03-20T10:12:47.270Z,50.67
2019-03-20T10:15:15.834Z,50.89
2019-03-20T10:17:43.981Z,51.41
2019-03-20T10:20:13.721Z,49.82
2019-03-20T10:22:41.876Z,49.77
2019-03-20T10:25:09.919Z,48.40
2019-03-20T10:27:38.053Z,49.56
2019-03-20T10:30:08.662Z,46.55
2019-03-20T10:32:36.787Z,47.88
2019-03-20T10:35:06.053Z,48.37
2019-03-20T10:37:34.180Z,48.11
2019-03-20T10:40:02.216Z,47.74
2019-03-20T10:42:30.325Z,45.35
2019-03-20T10:44:58.371Z,43.75
2019-03-20T10:47:26.526Z,43.50
2019-03-20T10:49:54.557Z,42.69
2019-03-20T10:52:22.460Z,42.73
2019-03-20T10:54:50.368Z,44.47
2019-03-20T10:57:18.460Z,45.45
2019-03-20T10:59:46.523Z,44.76
2019-03-20T11:02:14.632Z,44.40
2019-03-20T11:04:42.604Z,40.86
2019-03-20T11:07:10.683Z,36.88
2019-03-20T11:09:38.744Z,40.34
2019-03-20T11:12:06.768Z,37.89
2019-03-20T11:14:34.798Z,41.49
2019-03-20T11:17:02.942Z,38.12
2019-03-20T11:19:30.917Z,39.29
2019-03-20T11:21:59.012Z,39.08
2019-03-20T11:24:27.085Z,39.77
2019-03-20T11:26:55.102Z,39.96
2019-03-20T11:29:23.217Z,39.56
2019-03-20T11:31:51.354Z,38.20
2019-03-20T11:34:19.449Z,38.62
2019-03-20T11:36:47.659Z,37.55
2019-03-20T11:39:16.399Z,38.48
2019-03-20T11:41:44.474Z,38.48
2019-03-20T11:44:12.483Z,38.00
2019-03-20T11:46:40.578Z,36.19
2019-03-20T11:49:08.552Z,36.60
2019-03-20T11:51:36.573Z,34.55
2019-03-20T11:54:04.723Z,35.35
2019-03-20T11:56:32.865Z,35.90
2019-03-20T11:59:00.912Z,35.90
2019-03-20T12:01:28.947Z,35.52
2019-03-20T12:03:56.967Z,36.74
2019-03-20T12:06:24.849Z,37.46
2019-03-20T12:08:52.941Z,37.46
2019-03-20T12:11:21.442Z,37.92
2019-03-20T12:13:49.803Z,36.85
2019-03-20T12:16:17.652Z,36.85
2019-03-20T12:18:45.824Z,37.44
2019-03-20T12:21:13.877Z,34.58
2019-03-20T12:23:41.881Z,34.58
2019-03-20T12:26:09.934Z,35.08
2019-03-20T12:28:37.953Z,34.55
2019-03-20T12:31:07.818Z,32.30
2019-03-20T12:33:35.903Z,34.34
2019-03-20T12:36:04.067Z,33.97
2019-03-20T12:38:32.229Z,34.15
2019-03-20T12:41:00.772Z,33.47
2019-03-20T12:43:28.856Z,34.42
2019-03-20T12:45:56.915Z,36.03
2019-03-20T12:48:26.314Z,36.34
2019-03-20T12:50:54.332Z,36.75
2019-03-20T12:53:23.774Z,35.40
2019-03-20T12:55:51.802Z,33.83
2019-03-20T12:58:19.794Z,35.53
2019-03-20T13:03:15.371Z,36.34
2019-03-20T13:05:43.565Z,36.22
2019-03-20T13:08:21.288Z,36.53
2019-03-20T13:10:49.405Z,37.03
2019-03-20T13:13:19.288Z,37.23
2019-03-20T13:15:47.971Z,37.38
2019-03-20T13:18:16.418Z,37.72
2019-03-20T13:20:44.633Z,37.72
2019-03-20T13:23:14.308Z,37.50
2019-03-20T13:25:42.872Z,38.53
2019-03-20T13:28:11.162Z,37.63
2019-03-20T13:30:42.618Z,38.53
2019-03-20T13:33:10.757Z,34.97
2019-03-20T13:35:38.912Z,34.97
2019-03-20T13:38:07.930Z,36.14
2019-03-20T13:40:36.010Z,36.16
2019-03-20T13:43:04.277Z,35.30
2019-03-20T13:45:32.374Z,35.61
2019-03-20T13:48:00.435Z,34.33
2019-03-20T13:50:28.477Z,33.39
2019-03-20T13:52:56.577Z,34.31
2019-03-20T13:55:24.618Z,34.15
2019-03-20T13:58:23.225Z,33.53
2019-03-20T14:00:51.877Z,33.57
2019-03-20T14:03:20.589Z,33.83
2019-03-20T14:05:48.543Z,33.09
2019-03-20T14:08:16.650Z,32.80
2019-03-20T14:10:50.311Z,33.15
2019-03-20T14:13:14.564Z,32.58
2019-03-20T14:15:43.433Z,32.53
2019-03-20T14:18:11.414Z,33.04
2019-03-20T14:20:40.157Z,32.80
2019-03-20T14:23:08.045Z,32.86
2019-03-20T14:25:36.027Z,32.50
2019-03-20T14:28:04.085Z,32.99
2019-03-20T14:30:32.240Z,32.45
2019-03-20T14:33:00.278Z,32.57
2019-03-20T14:35:28.492Z,32.25
2019-03-20T14:37:56.616Z,31.59
2019-03-20T14:40:35.418Z,31.50
2019-03-20T14:42:56.325Z,31.49
2019-03-20T14:45:24.419Z,31.27
2019-03-20T14:47:52.900Z,31.75
2019-03-20T14:50:22.827Z,31.30
2019-03-20T14:52:50.873Z,31.55
2019-03-20T14:55:19.128Z,31.74
2019-03-20T14:57:47.200Z,31.60
2019-03-20T15:00:19.931Z,31.73
2019-03-20T15:02:48.028Z,32.07
2019-03-20T15:05:16.260Z,32.10
2019-03-20T15:07:44.327Z,32.17
2019-03-20T15:10:14.646Z,31.74
2019-03-20T15:12:49.592Z,31.74
2019-03-20T15:15:47.304Z,32.01
2019-03-20T15:18:15.222Z,32.09
2019-03-20T15:20:43.329Z,31.83
2019-03-20T15:23:11.266Z,32.03
2019-03-20T15:25:39.375Z,32.25
2019-03-20T15:28:07.396Z,31.78
2019-03-20T15:30:35.518Z,31.78
2019-03-20T15:33:03.688Z,32.65
2019-03-20T15:35:31.696Z,32.58
2019-03-20T15:37:59.686Z,32.87
2019-03-20T15:40:27.753Z,33.19
2019-03-20T15:42:55.801Z,33.19
2019-03-20T15:45:23.958Z,33.05
2019-03-20T15:47:52.066Z,33.23
2019-03-20T15:50:20.352Z,32.19
2019-03-20T15:52:48.445Z,33.37
2019-03-20T15:55:19.417Z,32.74
2019-03-20T15:57:47.362Z,32.87
2019-03-20T16:00:16.967Z,33.29
2019-03-20T16:02:45.317Z,33.00
2019-03-20T16:05:13.445Z,33.48
2019-03-20T16:07:41.817Z,33.58
2019-03-20T16:10:12.772Z,33.30
2019-03-20T16:12:40.919Z,33.77
2019-03-20T16:15:13.166Z,33.69
2019-03-20T16:17:42.029Z,33.98
2019-03-20T16:20:10.362Z,34.29
2019-03-20T16:22:38.388Z,34.75
2019-03-20T16:25:06.809Z,34.75
2019-03-20T16:27:34.892Z,35.02
2019-03-20T16:30:04.371Z,35.48
2019-03-20T16:32:32.433Z,35.67
2019-03-20T16:35:01.263Z,36.01
2019-03-20T16:37:29.383Z,36.31
2019-03-20T16:39:57.407Z,36.37
2019-03-20T16:42:25.470Z,36.33
2019-03-20T16:44:53.566Z,36.23
2019-03-20T16:47:21.687Z,36.28
2019-03-20T16:49:49.773Z,36.60
2019-03-20T16:52:17.875Z,36.81
2019-03-20T16:54:45.982Z,37.07
2019-03-20T16:57:13.928Z,37.03
2019-03-20T16:59:42.001Z,37.20
2019-03-20T17:02:10.122Z,37.43
2019-03-20T17:04:38.110Z,37.66
2019-03-20T17:07:06.364Z,37.88
2019-03-20T17:09:34.395Z,38.05
2019-03-20T17:12:02.633Z,37.99
2019-03-20T17:14:30.691Z,38.21
2019-03-20T17:17:00.901Z,38.44
2019-03-20T17:19:28.835Z,38.81
2019-03-20T17:21:56.888Z,39.03
2019-03-20T17:24:24.839Z,39.15
2019-03-20T17:26:53.185Z,39.68
2019-03-20T17:29:21.222Z,39.68
2019-03-20T17:31:49.390Z,39.72
2019-03-20T17:34:17.479Z,39.74
2019-03-20T17:36:46.102Z,39.86
2019-03-20T17:39:14.173Z,39.86
2019-03-20T17:41:42.983Z,39.66
2019-03-20T17:44:11.042Z,39.88
2019-03-20T17:46:39.531Z,40.07
2019-03-20T17:49:07.654Z,40.23
2019-03-20T17:51:35.727Z,40.71
2019-03-20T17:54:03.947Z,40.71
2019-03-20T17:56:32.040Z,41.00
2019-03-20T17:59:00.379Z,41.28
2019-03-20T18:01:28.439Z,41.30
2019-03-20T18:03:56.422Z,41.27
2019-03-20T18:06:24.472Z,41.26
2019-03-20T18:08:52.545Z,41.35
2019-03-20T18:11:20.810Z,41.65
2019-03-20T18:13:48.975Z,41.65
2019-03-20T18:16:16.999Z,41.79
2019-03-20T18:18:48.117Z,42.55
2019-03-20T18:21:16.339Z,42.36
2019-03-20T18:23:45.292Z,42.36
2019-03-20T18:26:13.479Z,42.72
2019-03-20T18:28:41.612Z,43.05
2019-03-20T18:31:09.807Z,43.13
2019-03-20T18:33:37.642Z,43.37
2019-03-20T18:36:05.807Z,43.37
2019-03-20T18:38:33.868Z,43.30
2019-03-20T18:41:01.842Z,43.37
2019-03-20T18:43:30.592Z,43.69
2019-03-20T18:45:58.723Z,43.69
2019-03-20T18:48:29.848Z,43.87
2019-03-20T18:50:57.812Z,43.87
2019-03-20T18:53:26.041Z,43.97
2019-03-20T18:55:55.296Z,44.16
2019-03-20T18:58:23.340Z,44.40
2019-03-20T19:00:51.330Z,44.76
2019-03-20T19:03:20.612Z,45.08
2019-03-20T19:05:58.254Z,45.39
2019-03-20T19:08:26.496Z,45.27
2019-03-20T19:10:54.656Z,45.63
2019-03-20T19:13:24.478Z,45.63
2019-03-20T19:15:52.627Z,46.09
2019-03-20T19:18:20.917Z,46.29
2019-03-20T19:20:48.976Z,46.47
2019-03-20T19:23:17.106Z,46.53
2019-03-20T19:25:45.194Z,46.62
2019-03-20T19:28:13.309Z,46.65
2019-03-20T19:30:42.668Z,46.56
2019-03-20T19:33:10.762Z,46.82
2019-03-20T19:35:38.832Z,47.29
2019-03-20T19:38:07.096Z,47.14
2019-03-20T19:40:35.751Z,47.13
2019-03-20T19:43:05.569Z,47.63
2019-03-20T19:45:34.386Z,47.45
2019-03-20T19:48:02.657Z,47.57
2019-03-20T19:50:31.108Z,47.78
2019-03-20T19:52:59.307Z,47.93
2019-03-20T19:55:27.403Z,48.10
2019-03-20T19:57:55.609Z,48.23
2019-03-20T20:00:23.738Z,48.27
2019-03-20T20:02:52.106Z,49.40
2019-03-20T20:05:20.213Z,52.40
2019-03-20T20:07:48.358Z,51.73
2019-03-20T20:10:16.675Z,50.02
2019-03-20T20:12:45.728Z,49.53
2019-03-20T20:15:16.520Z,49.29
2019-03-20T20:17:46.884Z,49.36
2019-03-20T20:20:16.125Z,49.70
2019-03-20T20:22:46.536Z,51.66
2019-03-20T20:25:14.708Z,50.13
2019-03-20T20:27:43.469Z,49.91
2019-03-20T20:30:13.687Z,49.95
2019-03-20T20:32:44.210Z,51.61
2019-03-20T20:35:12.559Z,51.87
2019-03-20T20:37:40.652Z,51.47
2019-03-20T20:40:10.662Z,50.52
2019-03-20T20:42:42.968Z,50.49
2019-03-20T20:45:09.396Z,50.61
2019-03-20T20:47:38.169Z,50.69
2019-03-20T20:50:06.689Z,50.88
2019-03-20T20:52:35.047Z,51.03
2019-03-20T20:55:03.271Z,51.05
2019-03-20T20:57:31.261Z,51.26
2019-03-20T20:59:59.456Z,51.48
2019-03-20T21:02:27.339Z,51.81
2019-03-20T21:04:55.365Z,52.21
2019-03-20T21:07:23.315Z,52.39
2019-03-20T21:09:51.511Z,52.32
2019-03-20T21:12:19.530Z,52.50
2019-03-20T21:14:47.743Z,52.79
2019-03-20T21:17:22.380Z,53.87
2019-03-20T21:19:51.210Z,53.25
2019-03-20T21:23:19.049Z,53.22
2019-03-20T21:25:47.734Z,53.17
2019-03-20T21:28:57.456Z,53.13
2019-03-20T21:31:33.186Z,53.17
2019-03-20T21:34:58.998Z,53.06
2019-03-20T21:38:14.191Z,53.65
2019-03-20T21:41:23.706Z,53.29
2019-03-20T21:44:31.646Z,53.15
2019-03-20T21:47:35.287Z,53.37
2019-03-20T21:51:02.728Z,53.64
2019-03-20T21:53:46.786Z,53.88
2019-03-20T21:56:25.430Z,54.35
2019-03-20T21:59:02.280Z,55.61
2019-03-20T22:02:11.389Z,54.87
2019-03-20T22:04:39.882Z,55.15
2019-03-20T22:07:09.294Z,55.13
2019-03-20T22:10:34.049Z,54.99
2019-03-20T22:13:29.193Z,55.12
2019-03-20T22:16:33.115Z,54.87
2019-03-20T22:19:53.354Z,55.06
2019-03-20T22:22:58.434Z,55.24
2019-03-20T22:26:03.485Z,55.40
2019-03-20T22:29:03.526Z,55.21
2019-03-20T22:31:33.049Z,56.05
2019-03-20T22:34:37.172Z,55.85
2019-03-20T22:37:05.719Z,55.86
2019-03-20T22:40:18.655Z,56.20
2019-03-20T22:43:00.333Z,55.56
2019-03-20T22:46:08.331Z,55.71
2019-03-20T22:49:35.824Z,55.98
2019-03-20T22:52:36.167Z,56.13
2019-03-20T22:55:37.913Z,56.64
2019-03-20T22:58:44.032Z,56.94
2019-03-20T23:01:42.609Z,58.50
2019-03-20T23:04:15.072Z,57.86
2019-03-20T23:06:43.770Z,58.24
2019-03-20T23:09:12.409Z,58.00
2019-03-20T23:11:40.967Z,57.82
2019-03-20T23:14:10.439Z,57.79
2019-03-20T23:16:39.021Z,57.37
2019-03-20T23:19:07.631Z,57.79
2019-03-20T23:21:36.143Z,57.75
2019-03-20T23:24:04.792Z,57.57
2019-03-20T23:26:33.280Z,57.88
2019-03-20T23:29:04.670Z,57.99
2019-03-20T23:31:33.309Z,58.62
2019-03-20T23:34:01.860Z,59.04
2019-03-20T23:36:30.367Z,58.76
2019-03-20T23:38:58.925Z,59.13
2019-03-20T23:41:27.542Z,59.60
2019-03-20T23:43:58.227Z,59.60
2019-03-20T23:46:26.694Z,59.55
2019-03-20T23:49:01.653Z,59.57
2019-03-20T23:51:30.216Z,59.15
2019-03-20T23:53:58.809Z,59.16
2019-03-20T23:56:29.299Z,59.68
2019-03-20T23:58:57.992Z,59.66
